METAR Data
IDs: Format: Raw Decoded Include TAF

Data at: 1136 UTC 28 Sep 2021

KLOT 281115Z AUTO 04006KT 10SM CLR 15/14 A2996 RMK AO2 T01480144